sensor_id;sensor_type;location;lat;lon;timestamp;pressure;altitude;pressure_sealevel;temperature;humidity
64753;BME280;73012;52.358;17.020;2023-11-19T00:04:14;101122.78;;;8.76;51.86
64753;BME280;73012;52.358;17.020;2023-11-19T00:09:14;101112.28;;;8.75;51.92
64753;BME280;73012;52.358;17.020;2023-11-19T00:14:14;101089.47;;;8.75;51.94
64753;BME280;73012;52.358;17.020;2023-11-19T00:19:16;101079.84;;;8.74;51.85
64753;BME280;73012;52.358;17.020;2023-11-19T00:24:16;101068.44;;;8.74;51.89
64753;BME280;73012;52.358;17.020;2023-11-19T00:29:17;101058.81;;;8.73;52.11
64753;BME280;73012;52.358;17.020;2023-11-19T00:34:18;101054.44;;;8.72;51.85
64753;BME280;73012;52.358;17.020;2023-11-19T00:39:19;101038.66;;;8.72;52.12
64753;BME280;73012;52.358;17.020;2023-11-19T00:44:19;101030.75;;;8.70;51.88
64753;BME280;73012;52.358;17.020;2023-11-19T00:49:20;101009.72;;;8.68;52.11
64753;BME280;73012;52.358;17.020;2023-11-19T00:54:21;101006.22;;;8.68;52.12
64753;BME280;73012;52.358;17.020;2023-11-19T00:59:21;100982.56;;;8.66;51.91
64753;BME280;73012;52.358;17.020;2023-11-19T01:04:23;100966.78;;;8.66;51.97
64753;BME280;73012;52.358;17.020;2023-11-19T01:09:23;100966.78;;;8.66;52.04
64753;BME280;73012;52.358;17.020;2023-11-19T01:14:23;100962.44;;;8.65;52.10
64753;BME280;73012;52.358;17.020;2023-11-19T01:19:25;100948.41;;;8.65;51.94
64753;BME280;73012;52.358;17.020;2023-11-19T01:24:25;100944.94;;;8.63;51.99
64753;BME280;73012;52.358;17.020;2023-11-19T01:29:26;100941.44;;;8.62;52.09
64753;BME280;73012;52.358;17.020;2023-11-19T01:34:27;100940.56;;;8.62;52.05
64753;BME280;73012;52.358;17.020;2023-11-19T01:39:28;100930.94;;;8.61;52.03
64753;BME280;73012;52.358;17.020;2023-11-19T01:44:28;100931.81;;;8.61;51.93
64753;BME280;73012;52.358;17.020;2023-11-19T01:49:30;100896.75;;;8.59;52.11
64753;BME280;73012;52.358;17.020;2023-11-19T01:54:31;100868.72;;;8.58;51.95
64753;BME280;73012;52.358;17.020;2023-11-19T01:59:32;100869.63;;;8.57;51.98
64753;BME280;73012;52.358;17.020;2023-11-19T02:04:34;100866.13;;;8.57;51.92
64753;BME280;73012;52.358;17.020;2023-11-19T02:09:34;100860.00;;;8.56;52.08
64753;BME280;73012;52.358;17.020;2023-11-19T02:14:35;100842.47;;;8.55;51.99
64753;BME280;73012;52.358;17.020;2023-11-19T02:19:36;100837.22;;;8.55;52.08
64753;BME280;73012;52.358;17.020;2023-11-19T02:24:37;100824.06;;;8.55;51.88
64753;BME280;73012;52.358;17.020;2023-11-19T02:29:39;100810.06;;;8.55;52.07
64753;BME280;73012;52.358;17.020;2023-11-19T02:34:39;100802.19;;;8.53;51.83
64753;BME280;73012;52.358;17.020;2023-11-19T02:39:40;100796.06;;;8.53;51.79
64753;BME280;73012;52.358;17.020;2023-11-19T02:44:44;100790.84;;;8.51;51.94
64753;BME280;73012;52.358;17.020;2023-11-19T02:49:45;100779.44;;;8.49;52.13
64753;BME280;73012;52.358;17.020;2023-11-19T02:54:45;100763.66;;;8.49;51.88
64753;BME280;73012;52.358;17.020;2023-11-19T02:59:47;100761.06;;;8.48;51.94
64753;BME280;73012;52.358;17.020;2023-11-19T03:04:47;100749.69;;;8.47;51.85
64753;BME280;73012;52.358;17.020;2023-11-19T03:09:47;100741.78;;;8.47;51.91
64753;BME280;73012;52.358;17.020;2023-11-19T03:14:49;100718.13;;;8.47;51.96
64753;BME280;73012;52.358;17.020;2023-11-19T03:19:49;100708.50;;;8.46;52.10
64753;BME280;73012;52.358;17.020;2023-11-19T03:24:50;100697.13;;;8.44;52.00
64753;BME280;73012;52.358;17.020;2023-11-19T03:29:52;100683.13;;;8.44;51.87
64753;BME280;73012;52.358;17.020;2023-11-19T03:34:53;100664.72;;;8.44;51.98
64753;BME280;73012;52.358;17.020;2023-11-19T03:39:53;100659.50;;;8.42;51.91
64753;BME280;73012;52.358;17.020;2023-11-19T03:44:55;100638.47;;;8.42;52.11
64753;BME280;73012;52.358;17.020;2023-11-19T03:49:56;100620.09;;;8.40;52.08
64753;BME280;73012;52.358;17.020;2023-11-19T03:54:56;100624.44;;;8.42;52.12
64753;BME280;73012;52.358;17.020;2023-11-19T03:59:58;100616.63;;;8.38;52.15
64753;BME280;73012;52.358;17.020;2023-11-19T04:04:58;100598.22;;;8.38;52.08
64753;BME280;73012;52.358;17.020;2023-11-19T04:09:58;100588.59;;;8.37;51.95
64753;BME280;73012;52.358;17.020;2023-11-19T04:15:00;100583.34;;;8.37;51.98
64753;BME280;73012;52.358;17.020;2023-11-19T04:20:00;100572.84;;;8.36;51.82
64753;BME280;73012;52.358;17.020;2023-11-19T04:25:01;100575.53;;;8.34;52.02
64753;BME280;73012;52.358;17.020;2023-11-19T04:30:03;100571.16;;;8.33;51.90
64753;BME280;73012;52.358;17.020;2023-11-19T04:35:04;100564.16;;;8.32;51.89
64753;BME280;73012;52.358;17.020;2023-11-19T04:40:06;100565.06;;;8.31;51.97
64753;BME280;73012;52.358;17.020;2023-11-19T04:45:08;100560.72;;;8.30;52.15
64753;BME280;73012;52.358;17.020;2023-11-19T04:50:09;100549.31;;;8.30;51.95
64753;BME280;73012;52.358;17.020;2023-11-19T04:55:10;100539.69;;;8.30;51.96
64753;BME280;73012;52.358;17.020;2023-11-19T05:00:12;100549.31;;;8.30;51.92
64753;BME280;73012;52.358;17.020;2023-11-19T05:05:15;100543.16;;;8.31;52.03
64753;BME280;73012;52.358;17.020;2023-11-19T05:10:15;100533.59;;;8.28;52.06
64753;BME280;73012;52.358;17.020;2023-11-19T05:15:17;100529.22;;;8.27;52.07
64753;BME280;73012;52.358;17.020;2023-11-19T05:20:17;100510.81;;;8.27;52.00
64753;BME280;73012;52.358;17.020;2023-11-19T05:25:18;100493.31;;;8.26;51.98
64753;BME280;73012;52.358;17.020;2023-11-19T05:30:19;100476.69;;;8.26;52.00
64753;BME280;73012;52.358;17.020;2023-11-19T05:35:20;100466.19;;;8.26;52.10
64753;BME280;73012;52.358;17.020;2023-11-19T05:40:20;100456.56;;;8.25;51.93
64753;BME280;73012;52.358;17.020;2023-11-19T05:45:22;100435.53;;;8.25;51.97
64753;BME280;73012;52.358;17.020;2023-11-19T05:50:22;100422.38;;;8.25;52.06
64753;BME280;73012;52.358;17.020;2023-11-19T05:55:22;100411.00;;;8.24;52.16
64753;BME280;73012;52.358;17.020;2023-11-19T06:00:24;100389.13;;;8.24;52.00
64753;BME280;73012;52.358;17.020;2023-11-19T06:05:24;100386.50;;;8.24;52.00
64753;BME280;73012;52.358;17.020;2023-11-19T06:10:25;100376.84;;;8.23;52.10
64753;BME280;73012;52.358;17.020;2023-11-19T06:15:27;100382.09;;;8.23;51.91
64753;BME280;73012;52.358;17.020;2023-11-19T06:20:27;100372.53;;;8.20;52.22
64753;BME280;73012;52.358;17.020;2023-11-19T06:25:27;100355.88;;;8.20;52.07
64753;BME280;73012;52.358;17.020;2023-11-19T06:30:29;100353.31;;;8.18;52.06
64753;BME280;73012;52.358;17.020;2023-11-19T06:35:29;100337.56;;;8.17;51.89
64753;BME280;73012;52.358;17.020;2023-11-19T06:40:30;100325.38;;;8.14;51.90
64753;BME280;73012;52.358;17.020;2023-11-19T06:45:31;100303.53;;;8.12;51.95
64753;BME280;73012;52.358;17.020;2023-11-19T06:50:32;100303.53;;;8.12;51.97
64753;BME280;73012;52.358;17.020;2023-11-19T06:55:32;100286.03;;;8.11;51.92
64753;BME280;73012;52.358;17.020;2023-11-19T07:00:34;100279.91;;;8.11;52.25
64753;BME280;73012;52.358;17.020;2023-11-19T07:05:35;100273.78;;;8.10;52.07
64753;BME280;73012;52.358;17.020;2023-11-19T07:10:36;100269.38;;;8.11;51.95
64753;BME280;73012;52.358;17.020;2023-11-19T07:15:37;100258.88;;;8.11;52.04
64753;BME280;73012;52.358;17.020;2023-11-19T07:20:38;100236.97;;;8.12;52.20
64753;BME280;73012;52.358;17.020;2023-11-19T07:25:38;100228.16;;;8.13;52.14
64753;BME280;73012;52.358;17.020;2023-11-19T07:30:40;100215.06;;;8.11;51.91
64753;BME280;73012;52.358;17.020;2023-11-19T07:35:40;100217.69;;;8.11;51.91
64753;BME280;73012;52.358;17.020;2023-11-19T07:40:40;100201.13;;;8.09;52.22
64753;BME280;73012;52.358;17.020;2023-11-19T07:45:42;100200.22;;;8.10;51.93
64753;BME280;73012;52.358;17.020;2023-11-19T07:50:42;100195.00;;;8.08;51.83
64753;BME280;73012;52.358;17.020;2023-11-19T07:55:43;100184.53;;;8.07;51.99
64753;BME280;73012;52.358;17.020;2023-11-19T08:00:44;100178.44;;;8.05;51.90
64753;BME280;73012;52.358;17.020;2023-11-19T08:05:45;100182.84;;;8.04;52.10
64753;BME280;73012;52.358;17.020;2023-11-19T08:10:45;100165.34;;;8.03;52.15
64753;BME280;73012;52.358;17.020;2023-11-19T08:15:47;100146.97;;;8.03;52.17
64753;BME280;73012;52.358;17.020;2023-11-19T08:20:47;100142.59;;;8.02;52.02
64753;BME280;73012;52.358;17.020;2023-11-19T08:25:47;100127.69;;;8.03;51.97
64753;BME280;73012;52.358;17.020;2023-11-19T08:30:49;100118.09;;;8.02;51.87
64753;BME280;73012;52.358;17.020;2023-11-19T08:35:49;100115.47;;;8.02;52.08
64753;BME280;73012;52.358;17.020;2023-11-19T08:40:50;100102.38;;;8.00;51.98
64753;BME280;73012;52.358;17.020;2023-11-19T08:45:51;100093.59;;;8.01;52.03
64753;BME280;73012;52.358;17.020;2023-11-19T08:50:52;100089.19;;;8.02;52.22
64753;BME280;73012;52.358;17.020;2023-11-19T08:55:52;100081.31;;;8.02;52.11
64753;BME280;73012;52.358;17.020;2023-11-19T09:00:54;100081.34;;;8.00;52.03
64753;BME280;73012;52.358;17.020;2023-11-19T09:05:54;100068.22;;;8.00;52.22
64753;BME280;73012;52.358;17.020;2023-11-19T09:10:54;100062.06;;;8.01;52.12
64753;BME280;73012;52.358;17.020;2023-11-19T09:15:56;100054.19;;;8.01;52.20
64753;BME280;73012;52.358;17.020;2023-11-19T09:20:56;100041.03;;;8.01;52.30
64753;BME280;73012;52.358;17.020;2023-11-19T09:25:57;100032.25;;;8.02;52.30
64753;BME280;73012;52.358;17.020;2023-11-19T09:30:58;100019.16;;;8.01;52.26
64753;BME280;73012;52.358;17.020;2023-11-19T09:35:59;100018.31;;;8.00;52.40
64753;BME280;73012;52.358;17.020;2023-11-19T09:40:59;100020.03;;;8.01;52.51
64753;BME280;73012;52.358;17.020;2023-11-19T09:46:04;100007.81;;;8.00;52.29
64753;BME280;73012;52.358;17.020;2023-11-19T09:51:06;99994.66;;;8.00;52.49
64753;BME280;73012;52.358;17.020;2023-11-19T09:56:07;100002.53;;;8.00;52.43
64753;BME280;73012;52.358;17.020;2023-11-19T10:01:09;100002.53;;;8.00;52.41
64753;BME280;73012;52.358;17.020;2023-11-19T10:06:09;99997.28;;;8.00;52.40
64753;BME280;73012;52.358;17.020;2023-11-19T10:11:10;99985.00;;;8.01;52.40
64753;BME280;73012;52.358;17.020;2023-11-19T10:16:13;99977.13;;;8.01;52.33
64753;BME280;73012;52.358;17.020;2023-11-19T10:21:14;99966.66;;;7.99;52.41
64753;BME280;73012;52.358;17.020;2023-11-19T10:26:14;99966.63;;;8.01;52.49
64753;BME280;73012;52.358;17.020;2023-11-19T10:31:17;99953.53;;;7.99;52.43
64753;BME280;73012;52.358;17.020;2023-11-19T10:36:18;99931.66;;;7.99;52.54
64753;BME280;73012;52.358;17.020;2023-11-19T10:41:26;99925.53;;;7.98;52.44
64753;BME280;73012;52.358;17.020;2023-11-19T10:46:38;99928.22;;;7.97;52.43
64753;BME280;73012;52.358;17.020;2023-11-19T10:51:44;99909.81;;;7.97;52.40
64753;BME280;73012;52.358;17.020;2023-11-19T10:56:48;99883.56;;;7.97;52.61
64753;BME280;73012;52.358;17.020;2023-11-19T11:01:56;99872.19;;;7.96;52.44
64753;BME280;73012;52.358;17.020;2023-11-19T11:06:58;99859.06;;;7.96;52.46
64753;BME280;73012;52.358;17.020;2023-11-19T11:12:00;99859.00;;;7.98;52.65
64753;BME280;73012;52.358;17.020;2023-11-19T11:17:03;99852.84;;;7.99;52.65
64753;BME280;73012;52.358;17.020;2023-11-19T11:22:05;99840.63;;;7.98;52.55
64753;BME280;73012;52.358;17.020;2023-11-19T11:27:30;99835.38;;;7.98;52.53
64753;BME280;73012;52.358;17.020;2023-11-19T11:32:38;99807.38;;;7.97;52.46
64753;BME280;73012;52.358;17.020;2023-11-19T11:37:45;99811.78;;;7.96;52.67
64753;BME280;73012;52.358;17.020;2023-11-19T11:42:46;99802.97;;;7.97;52.53
64753;BME280;73012;52.358;17.020;2023-11-19T11:48:12;99793.44;;;7.95;52.46
64753;BME280;73012;52.358;17.020;2023-11-19T11:53:16;99796.91;;;7.95;52.37
64753;BME280;73012;52.358;17.020;2023-11-19T11:58:17;99776.81;;;7.94;52.45
64753;BME280;73012;52.358;17.020;2023-11-19T12:03:21;99763.69;;;7.94;52.64
64753;BME280;73012;52.358;17.020;2023-11-19T12:08:25;99764.53;;;7.95;52.55
64753;BME280;73012;52.358;17.020;2023-11-19T12:13:46;99758.44;;;7.94;52.60
64753;BME280;73012;52.358;17.020;2023-11-19T12:18:49;99744.44;;;7.94;52.64
64753;BME280;73012;52.358;17.020;2023-11-19T12:23:50;99733.06;;;7.93;52.67
64753;BME280;73012;52.358;17.020;2023-11-19T12:28:57;99738.31;;;7.93;52.67
64753;BME280;73012;52.358;17.020;2023-11-19T12:33:59;99709.44;;;7.93;52.64
64753;BME280;73012;52.358;17.020;2023-11-19T12:38:59;99699.84;;;7.92;52.57
64753;BME280;73012;52.358;17.020;2023-11-19T12:44:09;99704.22;;;7.92;52.50
64753;BME280;73012;52.358;17.020;2023-11-19T12:49:12;99702.47;;;7.92;52.69
64753;BME280;73012;52.358;17.020;2023-11-19T12:54:12;99712.97;;;7.92;52.53
64753;BME280;73012;52.358;17.020;2023-11-19T12:59:13;99700.75;;;7.91;52.77
64753;BME280;73012;52.358;17.020;2023-11-19T13:04:18;99685.91;;;7.90;52.83
64753;BME280;73012;52.358;17.020;2023-11-19T13:09:22;99687.59;;;7.91;52.80
64753;BME280;73012;52.358;17.020;2023-11-19T13:14:23;99671.91;;;7.90;52.77
64753;BME280;73012;52.358;17.020;2023-11-19T13:19:24;99664.88;;;7.90;52.91
64753;BME280;73012;52.358;17.020;2023-11-19T13:24:25;99658.72;;;7.91;52.71
64753;BME280;73012;52.358;17.020;2023-11-19T13:29:25;99651.75;;;7.90;52.86
64753;BME280;73012;52.358;17.020;2023-11-19T13:34:27;99640.34;;;7.91;52.76
64753;BME280;73012;52.358;17.020;2023-11-19T13:39:27;99626.34;;;7.91;52.73
64753;BME280;73012;52.358;17.020;2023-11-19T13:44:27;99619.31;;;7.91;52.82
64753;BME280;73012;52.358;17.020;2023-11-19T13:49:29;99618.47;;;7.91;52.81
64753;BME280;73012;52.358;17.020;2023-11-19T13:54:29;99611.50;;;7.90;52.86
64753;BME280;73012;52.358;17.020;2023-11-19T13:59:30;99610.63;;;7.89;52.79
64753;BME280;73012;52.358;17.020;2023-11-19T14:04:32;99607.16;;;7.89;52.72
64753;BME280;73012;52.358;17.020;2023-11-19T14:09:32;99608.00;;;7.89;52.79
64753;BME280;73012;52.358;17.020;2023-11-19T14:14:33;99601.00;;;7.90;52.89
64753;BME280;73012;52.358;17.020;2023-11-19T14:19:34;99598.38;;;7.90;52.93
64753;BME280;73012;52.358;17.020;2023-11-19T14:24:35;99594.88;;;7.89;53.02
64753;BME280;73012;52.358;17.020;2023-11-19T14:29:35;99590.47;;;7.90;53.05
64753;BME280;73012;52.358;17.020;2023-11-19T14:34:37;99583.50;;;7.89;52.88
64753;BME280;73012;52.358;17.020;2023-11-19T14:39:37;99585.28;;;7.88;53.01
64753;BME280;73012;52.358;17.020;2023-11-19T14:44:37;99575.63;;;7.89;52.95
64753;BME280;73012;52.358;17.020;2023-11-19T14:49:39;99578.25;;;7.89;53.00
64753;BME280;73012;52.358;17.020;2023-11-19T14:54:39;99572.16;;;7.88;52.83
64753;BME280;73012;52.358;17.020;2023-11-19T14:59:40;99574.78;;;7.88;52.98
64753;BME280;73012;52.358;17.020;2023-11-19T15:04:41;99563.41;;;7.88;53.02
64753;BME280;73012;52.358;17.020;2023-11-19T15:09:41;99566.91;;;7.88;53.00
64753;BME280;73012;52.358;17.020;2023-11-19T15:14:42;99555.53;;;7.88;53.14
64753;BME280;73012;52.358;17.020;2023-11-19T15:19:43;99557.31;;;7.87;53.11
64753;BME280;73012;52.358;17.020;2023-11-19T15:24:44;99561.66;;;7.88;52.93
64753;BME280;73012;52.358;17.020;2023-11-19T15:29:44;99552.91;;;7.88;53.08
64753;BME280;73012;52.358;17.020;2023-11-19T15:34:46;99549.44;;;7.87;53.11
64753;BME280;73012;52.358;17.020;2023-11-19T15:39:46;99554.69;;;7.87;53.05
64753;BME280;73012;52.358;17.020;2023-11-19T15:44:46;99547.72;;;7.86;53.30
64753;BME280;73012;52.358;17.020;2023-11-19T15:49:48;99545.09;;;7.86;53.19
64753;BME280;73012;52.358;17.020;2023-11-19T15:54:48;99549.44;;;7.87;53.17
64753;BME280;73012;52.358;17.020;2023-11-19T15:59:49;99542.41;;;7.88;53.18
64753;BME280;73012;52.358;17.020;2023-11-19T16:04:50;99542.47;;;7.86;53.11
64753;BME280;73012;52.358;17.020;2023-11-19T16:09:51;99543.31;;;7.87;53.18
64753;BME280;73012;52.358;17.020;2023-11-19T16:14:51;99538.00;;;7.88;53.30
64753;BME280;73012;52.358;17.020;2023-11-19T16:19:53;99541.56;;;7.87;53.40
64753;BME280;73012;52.358;17.020;2023-11-19T16:24:53;99542.47;;;7.86;53.27
64753;BME280;73012;52.358;17.020;2023-11-19T16:29:54;99549.44;;;7.87;53.30
64753;BME280;73012;52.358;17.020;2023-11-19T16:34:55;99540.69;;;7.87;53.31
64753;BME280;73012;52.358;17.020;2023-11-19T16:39:56;99538.06;;;7.87;53.36
64753;BME280;73012;52.358;17.020;2023-11-19T16:44:56;99539.84;;;7.86;53.23
64753;BME280;73012;52.358;17.020;2023-11-19T16:49:58;99531.97;;;7.86;53.21
64753;BME280;73012;52.358;17.020;2023-11-19T16:54:58;99532.88;;;7.85;53.34
64753;BME280;73012;52.358;17.020;2023-11-19T16:59:58;99531.97;;;7.86;53.69
64753;BME280;73012;52.358;17.020;2023-11-19T17:05:00;99521.44;;;7.86;53.31
64753;BME280;73012;52.358;17.020;2023-11-19T17:10:01;99520.53;;;7.87;53.24
64753;BME280;73012;52.358;17.020;2023-11-19T17:15:01;99519.69;;;7.87;53.39
64753;BME280;73012;52.358;17.020;2023-11-19T17:20:04;99530.19;;;7.87;53.50
64753;BME280;73012;52.358;17.020;2023-11-19T17:25:06;99531.97;;;7.86;53.48
64753;BME280;73012;52.358;17.020;2023-11-19T17:30:07;99534.59;;;7.86;53.41
64753;BME280;73012;52.358;17.020;2023-11-19T17:35:09;99543.31;;;7.87;53.47
64753;BME280;73012;52.358;17.020;2023-11-19T17:40:10;99545.94;;;7.87;53.42
64753;BME280;73012;52.358;17.020;2023-11-19T17:45:11;99552.06;;;7.87;53.55
64753;BME280;73012;52.358;17.020;2023-11-19T17:50:12;99544.19;;;7.87;53.65
64753;BME280;73012;52.358;17.020;2023-11-19T17:55:13;99545.94;;;7.87;53.55
64753;BME280;73012;52.358;17.020;2023-11-19T18:00:13;99531.97;;;7.86;53.56
64753;BME280;73012;52.358;17.020;2023-11-19T18:05:15;99540.69;;;7.87;53.51
64753;BME280;73012;52.358;17.020;2023-11-19T18:10:16;99534.59;;;7.86;53.63
64753;BME280;73012;52.358;17.020;2023-11-19T18:15:16;99545.09;;;7.86;53.50
64753;BME280;73012;52.358;17.020;2023-11-19T18:20:18;99541.59;;;7.86;53.59
64753;BME280;73012;52.358;17.020;2023-11-19T18:25:18;99538.06;;;7.87;53.82
64753;BME280;73012;52.358;17.020;2023-11-19T18:30:19;99529.34;;;7.86;53.90
64753;BME280;73012;52.358;17.020;2023-11-19T18:35:20;99538.06;;;7.87;53.95
64753;BME280;73012;52.358;17.020;2023-11-19T18:40:21;99538.91;;;7.87;53.97
64753;BME280;73012;52.358;17.020;2023-11-19T18:45:21;99538.06;;;7.87;53.87
64753;BME280;73012;52.358;17.020;2023-11-19T18:50:23;99543.25;;;7.88;54.07
64753;BME280;73012;52.358;17.020;2023-11-19T18:55:23;99546.75;;;7.89;54.13
64753;BME280;73012;52.358;17.020;2023-11-19T19:00:24;99547.59;;;7.89;54.15
64753;BME280;73012;52.358;17.020;2023-11-19T19:05:25;99551.13;;;7.88;54.18
64753;BME280;73012;52.358;17.020;2023-11-19T19:10:26;99552.00;;;7.89;54.26
64753;BME280;73012;52.358;17.020;2023-11-19T19:15:26;99563.31;;;7.91;54.15
64753;BME280;73012;52.358;17.020;2023-11-19T19:20:28;99554.50;;;7.92;54.38
64753;BME280;73012;52.358;17.020;2023-11-19T19:25:28;99561.50;;;7.93;54.37
64753;BME280;73012;52.358;17.020;2023-11-19T19:30:28;99556.22;;;7.93;54.37
64753;BME280;73012;52.358;17.020;2023-11-19T19:35:30;99562.34;;;7.93;54.50
64753;BME280;73012;52.358;17.020;2023-11-19T19:40:30;99568.50;;;7.92;54.53
64753;BME280;73012;52.358;17.020;2023-11-19T19:45:30;99564.97;;;7.93;54.46
64753;BME280;73012;52.358;17.020;2023-11-19T19:50:32;99569.31;;;7.94;54.51
64753;BME280;73012;52.358;17.020;2023-11-19T19:55:32;99570.16;;;7.95;54.59
64753;BME280;73012;52.358;17.020;2023-11-19T20:00:33;99565.78;;;7.95;54.59
64753;BME280;73012;52.358;17.020;2023-11-19T20:05:34;99579.72;;;7.97;54.93
64753;BME280;73012;52.358;17.020;2023-11-19T20:10:35;99574.47;;;7.97;54.88
64753;BME280;73012;52.358;17.020;2023-11-19T20:15:35;99592.78;;;7.99;54.83
64753;BME280;73012;52.358;17.020;2023-11-19T20:20:37;99584.84;;;8.00;55.09
64753;BME280;73012;52.358;17.020;2023-11-19T20:25:37;99597.13;;;8.00;54.95
64753;BME280;73012;52.358;17.020;2023-11-19T20:30:38;99590.91;;;8.02;55.18
64753;BME280;73012;52.358;17.020;2023-11-19T20:35:39;99599.59;;;8.04;55.09
64753;BME280;73012;52.358;17.020;2023-11-19T20:40:40;99594.34;;;8.04;55.16
64753;BME280;73012;52.358;17.020;2023-11-19T20:45:40;99592.53;;;8.06;55.00
64753;BME280;73012;52.358;17.020;2023-11-19T20:50:42;99601.25;;;8.07;55.27
64753;BME280;73012;52.358;17.020;2023-11-19T20:55:42;99590.69;;;8.08;55.23
64753;BME280;73012;52.358;17.020;2023-11-19T21:00:43;99582.81;;;8.08;55.31
64753;BME280;73012;52.358;17.020;2023-11-19T21:05:44;99591.56;;;8.09;55.39
64753;BME280;73012;52.358;17.020;2023-11-19T21:10:45;99581.00;;;8.11;55.44
64753;BME280;73012;52.358;17.020;2023-11-19T21:15:45;99593.16;;;8.13;55.45
64753;BME280;73012;52.358;17.020;2023-11-19T21:20:47;99587.00;;;8.14;55.29
64753;BME280;73012;52.358;17.020;2023-11-19T21:25:47;99591.28;;;8.17;55.45
64753;BME280;73012;52.358;17.020;2023-11-19T21:30:47;99589.50;;;8.17;55.72
64753;BME280;73012;52.358;17.020;2023-11-19T21:35:49;99595.56;;;8.19;55.45
64753;BME280;73012;52.358;17.020;2023-11-19T21:40:50;99590.25;;;8.21;55.63
64753;BME280;73012;52.358;17.020;2023-11-19T21:45:50;99591.97;;;8.22;55.68
64753;BME280;73012;52.358;17.020;2023-11-19T21:50:52;99593.69;;;8.23;55.44
64753;BME280;73012;52.358;17.020;2023-11-19T21:55:52;99597.09;;;8.26;55.53
64753;BME280;73012;52.358;17.020;2023-11-19T22:00:53;99597.94;;;8.27;55.53
64753;BME280;73012;52.358;17.020;2023-11-19T22:05:54;99593.56;;;8.27;55.62
64753;BME280;73012;52.358;17.020;2023-11-19T22:10:55;99590.88;;;8.29;55.64
64753;BME280;73012;52.358;17.020;2023-11-19T22:15:55;99583.00;;;8.29;55.60
64753;BME280;73012;52.358;17.020;2023-11-19T22:20:57;99589.91;;;8.31;55.84
64753;BME280;73012;52.358;17.020;2023-11-19T22:25:57;99593.38;;;8.32;55.79
64753;BME280;73012;52.358;17.020;2023-11-19T22:30:57;99587.22;;;8.33;55.78
64753;BME280;73012;52.358;17.020;2023-11-19T22:35:59;99586.31;;;8.34;55.69
64753;BME280;73012;52.358;17.020;2023-11-19T22:40:59;99583.63;;;8.35;55.82
64753;BME280;73012;52.358;17.020;2023-11-19T22:46:00;99578.38;;;8.35;55.88
64753;BME280;73012;52.358;17.020;2023-11-19T22:51:01;99593.16;;;8.38;55.89
64753;BME280;73012;52.358;17.020;2023-11-19T22:56:02;99593.09;;;8.39;55.81
64753;BME280;73012;52.358;17.020;2023-11-19T23:01:03;99589.63;;;8.39;56.08
64753;BME280;73012;52.358;17.020;2023-11-19T23:06:05;99589.56;;;8.40;55.91
64753;BME280;73012;52.358;17.020;2023-11-19T23:11:06;99586.88;;;8.42;56.03
64753;BME280;73012;52.358;17.020;2023-11-19T23:16:07;99585.97;;;8.43;55.94
64753;BME280;73012;52.358;17.020;2023-11-19T23:21:08;99592.88;;;8.46;55.92
64753;BME280;73012;52.358;17.020;2023-11-19T23:26:09;99593.75;;;8.46;56.05
64753;BME280;73012;52.358;17.020;2023-11-19T23:31:09;99584.94;;;8.47;55.98
64753;BME280;73012;52.358;17.020;2023-11-19T23:36:11;99593.69;;;8.48;56.07
64753;BME280;73012;52.358;17.020;2023-11-19T23:41:11;99594.53;;;8.48;56.07
64753;BME280;73012;52.358;17.020;2023-11-19T23:46:11;99586.59;;;8.50;55.90
64753;BME280;73012;52.358;17.020;2023-11-19T23:51:13;99595.38;;;8.50;56.14
64753;BME280;73012;52.358;17.020;2023-11-19T23:56:13;99589.19;;;8.51;56.20
